| time (UTC) | temp C | wind direction | speed KPH | gust KPH | rain 1hr cm | rain 24hr cm | rain mn cm | humidity % | barometer mb |
| 20260906212312 | 32 | 68 | 3.2 | 3.2 | 0.00 | 0.00 | 0.00 | 40 | 1017.4 |
| 20260906211811 | 32 | 128 | 1.6 | 1.6 | 0.00 | 0.00 | 0.00 | 43 | 1017.4 |
| 20260906211307 | 32 | 129 | 3.2 | 4.8 | 0.00 | 0.00 | 0.00 | 42 | 1017.5 |
| 20260906210801 | 33 | 104 | 0.0 | 1.6 | 0.00 | 0.00 | 0.00 | 40 | 1017.6 |
| 20260906210301 | 32 | 95 | 0.0 | 1.6 | 0.00 | 0.00 | 0.00 | 42 | 1017.7 |
| 20260906205756 | 32 | 121 | 1.6 | 4.8 | 0.00 | 0.00 | 0.00 | 42 | 1017.8 |
| 20260906205253 | 31 | 45 | 1.6 | 3.2 | 0.00 | 0.00 | 0.00 | 44 | 1017.7 |
| 20260906204748 | 31 | 97 | 0.0 | 1.6 | 0.00 | 0.00 | 0.00 | 46 | 1017.7 |
| 20260906204247 | 32 | 100 | 1.6 | 3.2 | 0.00 | 0.00 | 0.00 | 43 | 1017.7 |
| 20260906203747 | 31 | 113 | 1.6 | 1.6 | 0.00 | 0.00 | 0.00 | 43 | 1018.0 |
| 20260906203242 | 32 | 85 | 3.2 | 4.8 | 0.00 | 0.00 | 0.00 | 42 | 1017.8 |
| 20260906202738 | 32 | 123 | 1.6 | 1.6 | 0.00 | 0.00 | 0.00 | 41 | 1018.0 |
| 20260906202238 | 31 | 73 | 0.0 | 1.6 | 0.00 | 0.00 | 0.00 | 40 | 1018.2 |
| 20260906201733 | 31 | 40 | 3.2 | 3.2 | 0.00 | 0.00 | 0.00 | 44 | 1018.1 |
| 20260906201227 | 31 | 73 | 3.2 | 3.2 | 0.00 | 0.00 | 0.00 | 44 | 1018.1 |
| 20260906200723 | 31 | 56 | 1.6 | 1.6 | 0.00 | 0.00 | 0.00 | 45 | 1018.3 |
| 20260906200219 | 31 | 72 | 1.6 | 1.6 | 0.00 | 0.00 | 0.00 | 46 | 1018.3 |
| 20260906195714 | 31 | 68 | 1.6 | 1.6 | 0.00 | 0.00 | 0.00 | 48 | 1018.3 |
| 20260906195210 | 31 | 84 | 0.0 | 0.0 | 0.00 | 0.00 | 0.00 | 48 | 1018.3 |
| 20260906194706 | 29 | 94 | 1.6 | 1.6 | 0.00 | 0.00 | 0.00 | 49 | 1018.2 |
| 20260906194201 | 30 | 123 | 3.2 | 3.2 | 0.00 | 0.00 | 0.00 | 49 | 1018.5 |
| 20260906193656 | 30 | 121 | 1.6 | 4.8 | 0.00 | 0.00 | 0.00 | 49 | 1018.4 |
| 20260906193151 | 30 | 98 | 1.6 | 1.6 | 0.00 | 0.00 | 0.00 | 47 | 1018.4 |
| 20260906192647 | 30 | 79 | 3.2 | 3.2 | 0.00 | 0.00 | 0.00 | 48 | 1018.8 |
| 20260906192146 | 30 | 81 | 1.6 | 3.2 | 0.00 | 0.00 | 0.00 | 49 | 1018.6 |
| 20260906191641 | 30 | 113 | 3.2 | 4.8 | 0.00 | 0.00 | 0.00 | 48 | 1018.8 |
| 20260906191140 | 30 | 112 | 1.6 | 3.2 | 0.00 | 0.00 | 0.00 | 48 | 1019.2 |
| 20260906190635 | 30 | 56 | 3.2 | 3.2 | 0.00 | 0.00 | 0.00 | 49 | 1019.2 |
| 20260906190130 | 29 | 97 | 0.0 | 0.0 | 0.00 | 0.00 | 0.00 | 50 | 1019.2 |
| 20260906185628 | 29 | 89 | 3.2 | 6.4 | 0.00 | 0.00 | 0.00 | 51 | 1019.5 |
| 20260906185128 | 29 | 135 | 1.6 | 1.6 | 0.00 | 0.00 | 0.00 | 49 | 1019.3 |
| 20260906184622 | 29 | 108 | 1.6 | 1.6 | 0.00 | 0.00 | 0.00 | 52 | 1019.8 |
| 20260906184118 | 29 | 114 | 3.2 | 4.8 | 0.00 | 0.00 | 0.00 | 53 | 1019.9 |
| 20260906183614 | 28 | 97 | 3.2 | 6.4 | 0.00 | 0.00 | 0.00 | 52 | 1019.7 |
| 20260906183110 | 28 | 69 | 4.8 | 4.8 | 0.00 | 0.00 | 0.00 | 50 | 1019.8 |
| 20260906182604 | 28 | 130 | 6.4 | 6.4 | 0.00 | 0.00 | 0.00 | 54 | 1019.9 |
| 20260906182101 | 29 | 106 | 1.6 | 3.2 | 0.00 | 0.00 | 0.00 | 52 | 1019.9 |
| 20260906181556 | 28 | 71 | 0.0 | 1.6 | 0.00 | 0.00 | 0.00 | 50 | 1020.0 |
| 20260906181052 | 29 | 113 | 4.8 | 4.8 | 0.00 | 0.00 | 0.00 | 50 | 1020.1 |
| 20260906180552 | 28 | 66 | 1.6 | 1.6 | 0.00 | 0.00 | 0.00 | 49 | 1020.3 |
| 20260906180050 | 29 | 70 | 3.2 | 3.2 | 0.00 | 0.00 | 0.00 | 52 | 1020.3 |
| 20260906175550 | 30 | 63 | 1.6 | 1.6 | 0.00 | 0.00 | 0.00 | 50 | 1020.4 |
| 20260906175044 | 28 | 105 | 0.0 | 0.0 | 0.00 | 0.00 | 0.00 | 51 | 1020.5 |
| 20260906174543 | 28 | 90 | 0.0 | 0.0 | 0.00 | 0.00 | 0.00 | 52 | 1020.8 |
| 20260906174038 | 28 | 98 | 3.2 | 3.2 | 0.00 | 0.00 | 0.00 | 52 | 1020.8 |
| 20260906173533 | 28 | 108 | 1.6 | 3.2 | 0.00 | 0.00 | 0.00 | 53 | 1020.8 |
| 20260906173029 | 27 | 100 | 1.6 | 1.6 | 0.00 | 0.00 | 0.00 | 53 | 1020.8 |
| 20260906172523 | 27 | 86 | 0.0 | 0.0 | 0.00 | 0.00 | 0.00 | 52 | 1020.6 |
| 20260906172019 | 26 | 99 | 0.0 | 0.0 | 0.00 | 0.00 | 0.00 | 57 | 1021.1 |
| 20260906171513 | 27 | 122 | 1.6 | 1.6 | 0.00 | 0.00 | 0.00 | 55 | 1021.3 |
| 20260906171009 | 26 | 85 | 1.6 | 3.2 | 0.00 | 0.00 | 0.00 | 55 | 1021.4 |
| 20260906170505 | 26 | 99 | 1.6 | 3.2 | 0.00 | 0.00 | 0.00 | 56 | 1021.3 |
| 20260906170003 | 26 | 81 | 0.0 | 0.0 | 0.00 | 0.00 | 0.00 | 56 | 1021.5 |
| 20260906165501 | 26 | 67 | 0.0 | 1.6 | 0.00 | 0.00 | 0.00 | 58 | 1021.4 |
| 20260906164955 | 26 | 125 | 0.0 | 1.6 | 0.00 | 0.00 | 0.00 | 57 | 1021.3 |
| 20260906164454 | 26 | 77 | 0.0 | 0.0 | 0.00 | 0.00 | 0.00 | 57 | 1021.3 |
| 20260906163951 | 25 | 62 | 1.6 | 3.2 | 0.00 | 0.00 | 0.00 | 59 | 1021.2 |
| 20260906163446 | 25 | 50 | 0.0 | 0.0 | 0.00 | 0.00 | 0.00 | 58 | 1021.4 |
| 20260906162944 | 25 | 81 | 1.6 | 1.6 | 0.00 | 0.00 | 0.00 | 61 | 1021.5 |
| 20260906162443 | 24 | 62 | 1.6 | 1.6 | 0.00 | 0.00 | 0.00 | 60 | 1021.5 |
| 20260906161938 | 25 | 64 | 0.0 | 0.0 | 0.00 | 0.00 | 0.00 | 61 | 1021.8 |
| 20260906161437 | 23 | 79 | 0.0 | 1.6 | 0.00 | 0.00 | 0.00 | 61 | 1021.9 |
| 20260906160937 | 24 | 83 | 1.6 | 1.6 | 0.00 | 0.00 | 0.00 | 62 | 1021.8 |
| 20260906160430 | 23 | 94 | 0.0 | 0.0 | 0.00 | 0.00 | 0.00 | 62 | 1021.5 |
| 20260906155928 | 23 | 67 | 0.0 | 1.6 | 0.00 | 0.00 | 0.00 | 62 | 1021.8 |
| 20260906155422 | 23 | 83 | 1.6 | 1.6 | 0.00 | 0.00 | 0.00 | 62 | 1021.5 |
| 20260906154919 | 23 | 81 | 1.6 | 1.6 | 0.00 | 0.00 | 0.00 | 62 | 1021.6 |
| 20260906154413 | 23 | 11 | 1.6 | 1.6 | 0.00 | 0.00 | 0.00 | 62 | 1021.6 |
| 20260906153912 | 22 | 27 | 1.6 | 1.6 | 0.00 | 0.00 | 0.00 | 65 | 1021.8 |
| 20260906153411 | 22 | 102 | 0.0 | 0.0 | 0.00 | 0.00 | 0.00 | 65 | 1021.8 |
| 20260906152906 | 22 | 71 | 1.6 | 1.6 | 0.00 | 0.00 | 0.00 | 66 | 1021.6 |
| 20260906152401 | 22 | 84 | 0.0 | 0.0 | 0.00 | 0.00 | 0.00 | 67 | 1022.0 |
| 20260906151900 | 21 | 33 | 3.2 | 3.2 | 0.00 | 0.00 | 0.00 | 67 | 1021.9 |
| 20260906151356 | 22 | 22 | 1.6 | 3.2 | 0.00 | 0.00 | 0.00 | 65 | 1022.1 |
| 20260906150851 | 22 | 79 | 0.0 | 0.0 | 0.00 | 0.00 | 0.00 | 66 | 1021.8 |
| 20260906150347 | 22 | 65 | 1.6 | 1.6 | 0.00 | 0.00 | 0.00 | 65 | 1022.0 |
| 20260906145846 | 22 | 76 | 0.0 | 0.0 | 0.00 | 0.00 | 0.00 | 65 | 1021.9 |
| 20260906145345 | 21 | 79 | 0.0 | 0.0 | 0.00 | 0.00 | 0.00 | 66 | 1021.9 |
| 20260906144840 | 22 | 61 | 1.6 | 1.6 | 0.00 | 0.00 | 0.00 | 67 | 1022.0 |
| 20260906144335 | 22 | 86 | 0.0 | 0.0 | 0.00 | 0.00 | 0.00 | 65 | 1022.0 |
| 20260906143835 | 21 | 70 | 1.6 | 3.2 | 0.00 | 0.00 | 0.00 | 67 | 1022.0 |
| 20260906143331 | 21 | 99 | 0.0 | 1.6 | 0.00 | 0.00 | 0.00 | 68 | 1022.1 |
| 20260906142826 | 21 | 89 | 0.0 | 0.0 | 0.00 | 0.00 | 0.00 | 68 | 1022.1 |
| 20260906142321 | 21 | 83 | 1.6 | 1.6 | 0.00 | 0.00 | 0.00 | 70 | 1022.0 |
| 20260906141820 | 21 | 6 | 3.2 | 4.8 | 0.00 | 0.00 | 0.00 | 68 | 1022.0 |
| 20260906141315 | 20 | 72 | 0.0 | 0.0 | 0.00 | 0.00 | 0.00 | 71 | 1021.9 |
| 20260906140813 | 20 | 58 | 1.6 | 3.2 | 0.00 | 0.00 | 0.00 | 72 | 1021.8 |
| 20260906140309 | 19 | 61 | 0.0 | 0.0 | 0.00 | 0.00 | 0.00 | 73 | 1021.8 |
| 20260906135807 | 18 | 46 | 1.6 | 1.6 | 0.00 | 0.00 | 0.00 | 75 | 1021.5 |
| 20260906135305 | 18 | 73 | 0.0 | 1.6 | 0.00 | 0.00 | 0.00 | 77 | 1021.9 |
| 20260906134757 | 18 | 93 | 1.6 | 3.2 | 0.00 | 0.00 | 0.00 | 77 | 1021.8 |
| 20260906134252 | 18 | 70 | 0.0 | 0.0 | 0.00 | 0.00 | 0.00 | 79 | 1021.6 |
| 20260906133748 | 18 | 57 | 3.2 | 3.2 | 0.00 | 0.00 | 0.00 | 79 | 1021.3 |
| 20260906133243 | 17 | 64 | 0.0 | 1.6 | 0.00 | 0.00 | 0.00 | 80 | 1021.6 |
| 20260906132738 | 17 | 58 | 0.0 | 0.0 | 0.00 | 0.00 | 0.00 | 80 | 1021.5 |
| 20260906132234 | 17 | 43 | 3.2 | 4.8 | 0.00 | 0.00 | 0.00 | 81 | 1021.5 |
| 20260906131730 | 17 | 51 | 1.6 | 1.6 | 0.00 | 0.00 | 0.00 | 82 | 1021.5 |
| 20260906131224 | 17 | 57 | 1.6 | 1.6 | 0.00 | 0.00 | 0.00 | 83 | 1021.5 |
| 20260906130720 | 17 | 56 | 0.0 | 0.0 | 0.00 | 0.00 | 0.00 | 84 | 1021.6 |
| 20260906130214 | 17 | 60 | 1.6 | 1.6 | 0.00 | 0.00 | 0.00 | 84 | 1021.4 |
| 20260906125713 | 17 | 73 | 0.0 | 0.0 | 0.00 | 0.00 | 0.00 | 85 | 1021.2 |
| 20260906125211 | 17 | 49 | 1.6 | 3.2 | 0.00 | 0.00 | 0.00 | 85 | 1021.3 |
| 20260906124707 | 17 | 44 | 1.6 | 3.2 | 0.00 | 0.00 | 0.00 | 86 | 1021.3 |
| 20260906124202 | 17 | 35 | 3.2 | 4.8 | 0.00 | 0.00 | 0.00 | 86 | 1021.5 |
| 20260906123701 | 17 | 56 | 0.0 | 1.6 | 0.00 | 0.00 | 0.00 | 86 | 1021.6 |
| 20260906123156 | 16 | 48 | 1.6 | 1.6 | 0.00 | 0.00 | 0.00 | 87 | 1021.5 |
| 20260906122655 | 16 | 52 | 0.0 | 0.0 | 0.00 | 0.00 | 0.00 | 88 | 1021.3 |
| 20260906122151 | 16 | 52 | 0.0 | 0.0 | 0.00 | 0.00 | 0.00 | 88 | 1021.6 |
| 20260906121648 | 16 | 52 | 0.0 | 0.0 | 0.00 | 0.00 | 0.00 | 88 | 1021.3 |
| 20260906121144 | 16 | 52 | 0.0 | 0.0 | 0.00 | 0.00 | 0.00 | 88 | 1021.1 |
| 20260906120639 | 16 | 52 | 0.0 | 0.0 | 0.00 | 0.00 | 0.00 | 88 | 1021.3 |
| 20260906120136 | 16 | 51 | 0.0 | 1.6 | 0.00 | 0.00 | 0.00 | 88 | 1021.1 |
| 20260906115631 | 17 | 52 | 0.0 | 0.0 | 0.00 | 0.00 | 0.00 | 88 | 1021.2 |
| 20260906115126 | 17 | 52 | 0.0 | 0.0 | 0.00 | 0.00 | 0.00 | 88 | 1021.1 |
| 20260906114620 | 17 | 53 | 0.0 | 0.0 | 0.00 | 0.00 | 0.00 | 87 | 1021.3 |
| 20260906114115 | 17 | 53 | 0.0 | 0.0 | 0.00 | 0.00 | 0.00 | 87 | 1021.4 |
| 20260906113615 | 17 | 53 | 0.0 | 0.0 | 0.00 | 0.00 | 0.00 | 87 | 1021.2 |
| 20260906113110 | 17 | 54 | 0.0 | 0.0 | 0.00 | 0.00 | 0.00 | 87 | 1021.1 |
| 20260906112609 | 17 | 56 | 0.0 | 0.0 | 0.00 | 0.00 | 0.00 | 87 | 1021.1 |
| 20260906112106 | 17 | 68 | 0.0 | 0.0 | 0.00 | 0.00 | 0.00 | 86 | 1021.3 |
| 20260906111605 | 17 | 60 | 0.0 | 0.0 | 0.00 | 0.00 | 0.00 | 86 | 1021.2 |
| 20260906111101 | 17 | 55 | 1.6 | 1.6 | 0.00 | 0.00 | 0.00 | 86 | 1021.1 |
| 20260906110600 | 17 | 73 | 0.0 | 0.0 | 0.00 | 0.00 | 0.00 | 86 | 1021.1 |
| 20260906110059 | 17 | 56 | 0.0 | 0.0 | 0.00 | 0.00 | 0.00 | 85 | 1020.9 |
| 20260906105554 | 17 | 59 | 0.0 | 1.6 | 0.00 | 0.00 | 0.00 | 85 | 1020.9 |
| 20260906105050 | 17 | 72 | 0.0 | 0.0 | 0.00 | 0.00 | 0.00 | 84 | 1020.9 |
| 20260906104549 | 17 | 65 | 1.6 | 1.6 | 0.00 | 0.00 | 0.00 | 84 | 1020.8 |
| 20260906104043 | 17 | 66 | 0.0 | 0.0 | 0.00 | 0.00 | 0.00 | 84 | 1021.2 |
| 20260906103542 | 17 | 56 | 0.0 | 0.0 | 0.00 | 0.00 | 0.00 | 83 | 1021.1 |
| 20260906103037 | 17 | 58 | 1.6 | 3.2 | 0.00 | 0.00 | 0.00 | 83 | 1021.2 |
| 20260906102537 | 18 | 70 | 0.0 | 0.0 | 0.00 | 0.00 | 0.00 | 83 | 1021.3 |
| 20260906102032 | 18 | 80 | 0.0 | 0.0 | 0.00 | 0.00 | 0.00 | 82 | 1021.2 |
| 20260906101526 | 18 | 115 | 3.2 | 4.8 | 0.00 | 0.00 | 0.00 | 82 | 1021.1 |
| 20260906101021 | 18 | 69 | 0.0 | 1.6 | 0.00 | 0.00 | 0.00 | 82 | 1020.9 |
| 20260906100517 | 18 | 87 | 3.2 | 4.8 | 0.00 | 0.00 | 0.00 | 81 | 1021.1 |
| 20260906100012 | 18 | 70 | 0.0 | 0.0 | 0.00 | 0.00 | 0.00 | 82 | 1020.9 |
| 20260906095507 | 18 | 86 | 3.2 | 4.8 | 0.00 | 0.00 | 0.00 | 81 | 1021.1 |
| 20260906095002 | 19 | 79 | 0.0 | 0.0 | 0.00 | 0.00 | 0.00 | 81 | 1020.7 |
| 20260906094501 | 19 | 29 | 1.6 | 3.2 | 0.00 | 0.00 | 0.00 | 80 | 1020.8 |
| 20260906093957 | 19 | 56 | 1.6 | 3.2 | 0.00 | 0.00 | 0.00 | 80 | 1020.7 |
| 20260906093453 | 19 | 94 | 3.2 | 4.8 | 0.00 | 0.00 | 0.00 | 80 | 1020.7 |
| 20260906092948 | 19 | 74 | 0.0 | 0.0 | 0.00 | 0.00 | 0.00 | 79 | 1020.5 |
| 20260906092448 | 19 | 89 | 3.2 | 3.2 | 0.00 | 0.00 | 0.00 | 79 | 1020.4 |
| 20260906091943 | 20 | 61 | 1.6 | 1.6 | 0.00 | 0.00 | 0.00 | 78 | 1020.4 |
| 20260906091439 | 20 | 93 | 0.0 | 0.0 | 0.00 | 0.00 | 0.00 | 77 | 1020.4 |
| 20260906090935 | 20 | 72 | 1.6 | 1.6 | 0.00 | 0.00 | 0.00 | 76 | 1020.4 |
| 20260906090430 | 20 | 66 | 1.6 | 1.6 | 0.00 | 0.00 | 0.00 | 75 | 1020.4 |
| 20260906085930 | 20 | 69 | 0.0 | 1.6 | 0.00 | 0.00 | 0.00 | 75 | 1020.3 |
| 20260906085429 | 20 | 68 | 0.0 | 1.6 | 0.00 | 0.00 | 0.00 | 75 | 1020.1 |
| 20260906084928 | 20 | 60 | 0.0 | 0.0 | 0.00 | 0.00 | 0.00 | 75 | 1020.4 |
| 20260906084423 | 20 | 81 | 0.0 | 0.0 | 0.00 | 0.00 | 0.00 | 75 | 1020.5 |
| 20260906083922 | 20 | 62 | 0.0 | 0.0 | 0.00 | 0.00 | 0.00 | 75 | 1020.5 |
| 20260906083418 | 20 | 60 | 0.0 | 0.0 | 0.00 | 0.00 | 0.00 | 74 | 1020.5 |
| 20260906082917 | 20 | 60 | 0.0 | 0.0 | 0.00 | 0.00 | 0.00 | 75 | 1020.5 |
| 20260906082413 | 20 | 59 | 0.0 | 0.0 | 0.00 | 0.00 | 0.00 | 75 | 1020.5 |
| 20260906081908 | 20 | 61 | 0.0 | 1.6 | 0.00 | 0.00 | 0.00 | 74 | 1020.4 |
| 20260906081404 | 20 | 37 | 0.0 | 1.6 | 0.00 | 0.00 | 0.00 | 74 | 1020.4 |
| 20260906080900 | 20 | 59 | 0.0 | 0.0 | 0.00 | 0.00 | 0.00 | 74 | 1020.4 |
| 20260906080356 | 20 | 15 | 1.6 | 3.2 | 0.00 | 0.00 | 0.00 | 74 | 1020.5 |
| 20260906075855 | 20 | 66 | 0.0 | 0.0 | 0.00 | 0.00 | 0.00 | 74 | 1020.4 |
| 20260906075350 | 20 | 41 | 3.2 | 4.8 | 0.00 | 0.00 | 0.00 | 74 | 1020.6 |
| 20260906074846 | 20 | 70 | 0.0 | 0.0 | 0.00 | 0.00 | 0.00 | 74 | 1020.5 |
| 20260906074340 | 20 | 57 | 0.0 | 0.0 | 0.00 | 0.00 | 0.00 | 74 | 1020.4 |
| 20260906073839 | 20 | 61 | 0.0 | 1.6 | 0.00 | 0.00 | 0.00 | 73 | 1020.5 |
| 20260906073334 | 20 | 62 | 0.0 | 0.0 | 0.00 | 0.00 | 0.00 | 73 | 1020.6 |
| 20260906072831 | 20 | 65 | 0.0 | 0.0 | 0.00 | 0.00 | 0.00 | 72 | 1020.5 |
| 20260906072326 | 20 | 70 | 0.0 | 1.6 | 0.00 | 0.00 | 0.00 | 72 | 1020.5 |
| 20260906071822 | 20 | 49 | 1.6 | 3.2 | 0.00 | 0.00 | 0.00 | 73 | 1020.4 |
| 20260906071321 | 20 | 65 | 0.0 | 0.0 | 0.00 | 0.00 | 0.00 | 72 | 1020.3 |
| 20260906070818 | 20 | 70 | 0.0 | 1.6 | 0.00 | 0.00 | 0.00 | 72 | 1020.3 |
| 20260906070314 | 20 | 63 | 0.0 | 0.0 | 0.00 | 0.00 | 0.00 | 73 | 1020.3 |
| 20260906065814 | 20 | 93 | 0.0 | 0.0 | 0.00 | 0.00 | 0.00 | 73 | 1020.3 |
| 20260906065309 | 20 | 56 | 1.6 | 1.6 | 0.00 | 0.00 | 0.00 | 73 | 1020.4 |
| 20260906064804 | 20 | 57 | 1.6 | 3.2 | 0.00 | 0.00 | 0.00 | 73 | 1020.3 |
| 20260906064300 | 20 | 58 | 0.0 | 1.6 | 0.00 | 0.00 | 0.00 | 72 | 1020.4 |
| 20260906063755 | 20 | 56 | 1.6 | 1.6 | 0.00 | 0.00 | 0.00 | 72 | 1020.3 |
| 20260906063251 | 20 | 59 | 0.0 | 0.0 | 0.00 | 0.00 | 0.00 | 73 | 1020.7 |
| 20260906062745 | 20 | 62 | 0.0 | 0.0 | 0.00 | 0.00 | 0.00 | 73 | 1020.7 |
| 20260906062244 | 20 | 70 | 0.0 | 0.0 | 0.00 | 0.00 | 0.00 | 73 | 1020.6 |
| 20260906061740 | 20 | 68 | 0.0 | 0.0 | 0.00 | 0.00 | 0.00 | 72 | 1020.5 |
| 20260906061237 | 20 | 70 | 0.0 | 0.0 | 0.00 | 0.00 | 0.00 | 71 | 1020.5 |
| 20260906060726 | 20 | 75 | 0.0 | 0.0 | 0.00 | 0.00 | 0.00 | 70 | 1020.4 |
| 20260906060224 | 20 | 47 | 3.2 | 3.2 | 0.00 | 0.00 | 0.00 | 70 | 1020.0 |
| 20260906055720 | 21 | 70 | 0.0 | 0.0 | 0.00 | 0.00 | 0.00 | 69 | 1019.9 |
| 20260906055215 | 21 | 86 | 0.0 | 0.0 | 0.00 | 0.00 | 0.00 | 68 | 1020.1 |
| 20260906054710 | 21 | 85 | 0.0 | 0.0 | 0.00 | 0.00 | 0.00 | 66 | 1020.0 |
| 20260906054210 | 21 | 58 | 0.0 | 1.6 | 0.00 | 0.00 | 0.00 | 65 | 1020.1 |
| 20260906053707 | 21 | 37 | 1.6 | 1.6 | 0.00 | 0.00 | 0.00 | 64 | 1020.0 |
| 20260906053201 | 21 | 43 | 1.6 | 3.2 | 0.00 | 0.00 | 0.00 | 64 | 1019.7 |
| 20260906052656 | 21 | 11 | 4.8 | 4.8 | 0.00 | 0.00 | 0.00 | 63 | 1020.0 |
| 20260906052153 | 21 | 36 | 3.2 | 4.8 | 0.00 | 0.00 | 0.00 | 61 | 1019.7 |
| 20260906051649 | 22 | 90 | 0.0 | 1.6 | 0.00 | 0.00 | 0.00 | 59 | 1019.7 |
| 20260906051149 | 22 | 52 | 1.6 | 3.2 | 0.00 | 0.00 | 0.00 | 57 | 1019.5 |
| 20260906050644 | 22 | 57 | 1.6 | 1.6 | 0.00 | 0.00 | 0.00 | 55 | 1019.7 |
| 20260906050139 | 22 | 46 | 0.0 | 1.6 | 0.00 | 0.00 | 0.00 | 54 | 1019.5 |
| 20260906045638 | 23 | 54 | 3.2 | 3.2 | 0.00 | 0.00 | 0.00 | 52 | 1019.6 |
| 20260906045133 | 23 | 66 | 1.6 | 1.6 | 0.00 | 0.00 | 0.00 | 51 | 1019.8 |
| 20260906044629 | 23 | 93 | 1.6 | 1.6 | 0.00 | 0.00 | 0.00 | 50 | 1019.6 |
| 20260906044124 | 23 | 68 | 0.0 | 0.0 | 0.00 | 0.00 | 0.00 | 48 | 1019.7 |
| 20260906043621 | 24 | 72 | 0.0 | 1.6 | 0.00 | 0.00 | 0.00 | 48 | 1019.5 |
| 20260906043116 | 23 | 54 | 0.0 | 1.6 | 0.00 | 0.00 | 0.00 | 48 | 1019.5 |
| 20260906042615 | 23 | 67 | 0.0 | 0.0 | 0.00 | 0.00 | 0.00 | 48 | 1019.5 |
| 20260906042109 | 23 | 66 | 0.0 | 0.0 | 0.00 | 0.00 | 0.00 | 48 | 1019.2 |
| 20260906041606 | 23 | 66 | 0.0 | 0.0 | 0.00 | 0.00 | 0.00 | 48 | 1019.2 |
| 20260906041100 | 23 | 66 | 0.0 | 0.0 | 0.00 | 0.00 | 0.00 | 47 | 1018.9 |
| 20260906040556 | 23 | 66 | 0.0 | 0.0 | 0.00 | 0.00 | 0.00 | 47 | 1019.0 |
| 20260906040051 | 24 | 65 | 0.0 | 0.0 | 0.00 | 0.00 | 0.00 | 46 | 1019.0 |
| 20260906035546 | 24 | 65 | 0.0 | 0.0 | 0.00 | 0.00 | 0.00 | 46 | 1019.1 |
| 20260906035042 | 24 | 78 | 0.0 | 0.0 | 0.00 | 0.00 | 0.00 | 45 | 1018.9 |
| 20260906034542 | 24 | 60 | 0.0 | 0.0 | 0.00 | 0.00 | 0.00 | 45 | 1018.9 |
| 20260906034037 | 24 | 68 | 0.0 | 0.0 | 0.00 | 0.00 | 0.00 | 44 | 1018.9 |
| 20260906033532 | 25 | 69 | 0.0 | 0.0 | 0.00 | 0.00 | 0.00 | 44 | 1018.6 |
| 20260906033027 | 25 | 64 | 0.0 | 0.0 | 0.00 | 0.00 | 0.00 | 42 | 1018.9 |
| 20260906032524 | 25 | 77 | 0.0 | 0.0 | 0.00 | 0.00 | 0.00 | 42 | 1019.1 |
| 20260906032019 | 25 | 73 | 0.0 | 0.0 | 0.00 | 0.00 | 0.00 | 41 | 1018.8 |
| 20260906031515 | 25 | 76 | 0.0 | 1.6 | 0.00 | 0.00 | 0.00 | 40 | 1018.9 |
| 20260906031009 | 25 | 76 | 0.0 | 0.0 | 0.00 | 0.00 | 0.00 | 39 | 1018.8 |
| 20260906030503 | 26 | 69 | 0.0 | 0.0 | 0.00 | 0.00 | 0.00 | 39 | 1018.8 |
| 20260906030003 | 26 | 353 | 1.6 | 3.2 | 0.00 | 0.00 | 0.00 | 39 | 1018.4 |
| 20260906025502 | 26 | 328 | 3.2 | 4.8 | 0.00 | 0.00 | 0.00 | 38 | 1018.3 |
| 20260906025001 | 26 | 71 | 0.0 | 0.0 | 0.00 | 0.00 | 0.00 | 38 | 1018.3 |
| 20260906024456 | 26 | 86 | 0.0 | 1.6 | 0.00 | 0.00 | 0.00 | 38 | 1018.2 |
| 20260906023956 | 26 | 69 | 0.0 | 0.0 | 0.00 | 0.00 | 0.00 | 38 | 1018.1 |
| 20260906023453 | 26 | 55 | 1.6 | 1.6 | 0.00 | 0.00 | 0.00 | 38 | 1018.2 |
| 20260906022953 | 27 | 28 | 6.4 | 9.7 | 0.00 | 0.00 | 0.00 | 37 | 1018.2 |
| 20260906022448 | 27 | 70 | 1.6 | 1.6 | 0.00 | 0.00 | 0.00 | 37 | 1018.2 |
| 20260906021943 | 27 | 332 | 3.2 | 4.8 | 0.00 | 0.00 | 0.00 | 36 | 1018.2 |
| 20260906021438 | 27 | 300 | 3.2 | 9.7 | 0.00 | 0.00 | 0.00 | 36 | 1018.2 |
| 20260906020938 | 27 | 64 | 0.0 | 1.6 | 0.00 | 0.00 | 0.00 | 36 | 1017.8 |
| 20260906020432 | 27 | 59 | 1.6 | 3.2 | 0.00 | 0.00 | 0.00 | 36 | 1018.0 |
| 20260906015927 | 27 | 67 | 0.0 | 1.6 | 0.00 | 0.00 | 0.00 | 36 | 1018.0 |
| 20260906015426 | 27 | 344 | 4.8 | 6.4 | 0.00 | 0.00 | 0.00 | 36 | 1017.7 |
| 20260906014926 | 27 | 54 | 1.6 | 3.2 | 0.00 | 0.00 | 0.00 | 36 | 1017.8 |
| 20260906014426 | 27 | 49 | 1.6 | 3.2 | 0.00 | 0.00 | 0.00 | 36 | 1017.7 |
| 20260906013922 | 27 | 55 | 1.6 | 3.2 | 0.00 | 0.00 | 0.00 | 36 | 1017.8 |
| 20260906013418 | 28 | 257 | 4.8 | 4.8 | 0.00 | 0.00 | 0.00 | 36 | 1017.6 |
| 20260906012913 | 28 | 36 | 8.0 | 11.3 | 0.00 | 0.00 | 0.00 | 36 | 1017.7 |
| 20260906012408 | 28 | 31 | 1.6 | 1.6 | 0.00 | 0.00 | 0.00 | 36 | 1017.7 |
| 20260906011907 | 28 | 38 | 3.2 | 4.8 | 0.00 | 0.00 | 0.00 | 35 | 1018.1 |
| 20260906011402 | 29 | 39 | 4.8 | 9.7 | 0.00 | 0.00 | 0.00 | 33 | 1017.7 |
| 20260906010858 | 30 | 339 | 6.4 | 9.7 | 0.00 | 0.00 | 0.00 | 32 | 1017.4 |
| 20260906010354 | 30 | 40 | 3.2 | 4.8 | 0.00 | 0.00 | 0.00 | 32 | 1017.5 |
| 20260906005849 | 30 | 58 | 4.8 | 6.4 | 0.00 | 0.00 | 0.00 | 31 | 1017.3 |
| 20260906005349 | 31 | 71 | 1.6 | 1.6 | 0.00 | 0.00 | 0.00 | 31 | 1017.4 |
| 20260906004847 | 31 | 356 | 3.2 | 3.2 | 0.00 | 0.00 | 0.00 | 29 | 1017.3 |
| 20260906004342 | 31 | 80 | 0.0 | 0.0 | 0.00 | 0.00 | 0.00 | 29 | 1017.1 |
| 20260906003837 | 32 | 85 | 0.0 | 0.0 | 0.00 | 0.00 | 0.00 | 29 | 1017.3 |
| 20260906003332 | 32 | 89 | 0.0 | 0.0 | 0.00 | 0.00 | 0.00 | 28 | 1017.3 |
| 20260906002833 | 32 | 75 | 0.0 | 0.0 | 0.00 | 0.00 | 0.00 | 28 | 1017.1 |
| 20260906002332 | 32 | 84 | 1.6 | 1.6 | 0.00 | 0.00 | 0.00 | 28 | 1017.3 |
| 20260906001829 | 33 | 85 | 1.6 | 1.6 | 0.00 | 0.00 | 0.00 | 27 | 1017.0 |
| 20260906001324 | 33 | 21 | 1.6 | 3.2 | 0.00 | 0.00 | 0.00 | 27 | 1017.0 |
| 20260906000819 | 33 | 98 | 0.0 | 1.6 | 0.00 | 0.00 | 0.00 | 28 | 1017.1 |
| 20260906000314 | 33 | 70 | 0.0 | 0.0 | 0.00 | 0.00 | 0.00 | 30 | 1017.0 |
| 20260905235814 | 33 | 34 | 1.6 | 3.2 | 0.00 | 0.00 | 0.00 | 31 | 1017.0 |
| 20260905235314 | 33 | 69 | 0.0 | 0.0 | 0.00 | 0.00 | 0.00 | 33 | 1017.1 |
| 20260905234809 | 33 | 85 | 0.0 | 0.0 | 0.00 | 0.00 | 0.00 | 32 | 1016.9 |
| 20260905234304 | 33 | 86 | 1.6 | 3.2 | 0.00 | 0.00 | 0.00 | 31 | 1016.9 |
| 20260905233800 | 34 | 69 | 1.6 | 1.6 | 0.00 | 0.00 | 0.00 | 31 | 1016.9 |
| 20260905233259 | 34 | 79 | 0.0 | 0.0 | 0.00 | 0.00 | 0.00 | 31 | 1017.0 |
| 20260905232759 | 34 | 135 | 3.2 | 6.4 | 0.00 | 0.00 | 0.00 | 31 | 1017.0 |
| 20260905232255 | 35 | 93 | 0.0 | 0.0 | 0.00 | 0.00 | 0.00 | 30 | 1016.8 |
| 20260905231750 | 35 | 85 | 0.0 | 1.6 | 0.00 | 0.00 | 0.00 | 30 | 1016.7 |
| 20260905231246 | 35 | 70 | 1.6 | 4.8 | 0.00 | 0.00 | 0.00 | 29 | 1016.7 |
| 20260905230742 | 35 | 103 | 1.6 | 1.6 | 0.00 | 0.00 | 0.00 | 30 | 1016.8 |
| 20260905230239 | 35 | 134 | 1.6 | 3.2 | 0.00 | 0.00 | 0.00 | 29 | 1016.8 |
| 20260905225739 | 35 | 90 | 1.6 | 1.6 | 0.00 | 0.00 | 0.00 | 29 | 1016.5 |
| 20260905225235 | 36 | 49 | 3.2 | 4.8 | 0.00 | 0.00 | 0.00 | 28 | 1016.6 |
| 20260905224733 | 36 | 101 | 3.2 | 4.8 | 0.00 | 0.00 | 0.00 | 28 | 1016.6 |
| 20260905224229 | 37 | 116 | 1.6 | 3.2 | 0.00 | 0.00 | 0.00 | 26 | 1016.5 |
| 20260905223726 | 37 | 99 | 1.6 | 3.2 | 0.00 | 0.00 | 0.00 | 24 | 1016.6 |
| 20260905223222 | 37 | 75 | 0.0 | 0.0 | 0.00 | 0.00 | 0.00 | 25 | 1016.7 |
| 20260905222718 | 37 | 85 | 1.6 | 1.6 | 0.00 | 0.00 | 0.00 | 25 | 1016.5 |
| 20260905222216 | 36 | 94 | 0.0 | 0.0 | 0.00 | 0.00 | 0.00 | 24 | 1016.6 |
| 20260905221713 | 36 | 75 | 0.0 | 0.0 | 0.00 | 0.00 | 0.00 | 23 | 1016.9 |
| 20260905221209 | 36 | 81 | 0.0 | 0.0 | 0.00 | 0.00 | 0.00 | 24 | 1016.8 |
| 20260905220705 | 36 | 93 | 0.0 | 0.0 | 0.00 | 0.00 | 0.00 | 24 | 1016.9 |
| 20260905220201 | 36 | 107 | 0.0 | 1.6 | 0.00 | 0.00 | 0.00 | 24 | 1016.9 |
| 20260905215700 | 36 | 85 | 0.0 | 1.6 | 0.00 | 0.00 | 0.00 | 24 | 1016.7 |
| 20260905215156 | 36 | 30 | 0.0 | 0.0 | 0.00 | 0.00 | 0.00 | 23 | 1017.0 |
| 20260905214652 | 36 | 95 | 4.8 | 6.4 | 0.00 | 0.00 | 0.00 | 23 | 1017.1 |
| 20260905214147 | 36 | 59 | 1.6 | 3.2 | 0.00 | 0.00 | 0.00 | 25 | 1017.3 |
| 20260905213642 | 35 | 113 | 0.0 | 0.0 | 0.00 | 0.00 | 0.00 | 24 | 1017.1 |
| 20260905213137 | 36 | 101 | 1.6 | 1.6 | 0.00 | 0.00 | 0.00 | 25 | 1017.4 |
| 20260905212632 | 35 | 89 | 0.0 | 1.6 | 0.00 | 0.00 | 0.00 | 24 | 1017.4 |